Terminal Aerodrome Forecast
Issued by NWS

Home | Current Version | Previous Version | Text Only | Print | Product List | Glossary On
Versions: 1 2 3 4 5 6 7 8 9 10 11 12
000
FTUS45 KABQ 251739
TAFSAF
TAF
KSAF 251739Z 2518/2618 25014G24KT P6SM SKC
     FM252000 24015G25KT P6SM FEW100
     FM260200 14008KT P6SM FEW100
     FM260800 02007KT P6SM SKC
     FM261700 23011KT P6SM SKC=

USA.gov is the U.S. government's official web portal to all federal, state and local government web resources and services.